Aviation Digital Data Service (ADDS)

Output produced by METARs form (1545 UTC 24 August 2019)
found at http://www.aviationweather.gov/metar/data/
 
METAR text: RJOT 241200Z 16006KT 9999 VCSH FEW020 BKN110 20/19 Q1012
Conditions at: RJOT (TAKAMATSU AIRPOR, JP) observed 1200 UTC 24 August 2019
Temperature: 20.0°C (68°F)
Dewpoint: 19.0°C (66°F) [RH = 94%]
Pressure (altimeter): 29.88 inches Hg (1012.0 mb)
Winds: from the SSE (160 degrees) at 7 MPH (6 knots; 3.1 m/s)
Visibility: 6 or more miles (10+ km)
Ceiling: 11000 feet AGL
Clouds: few clouds at 2000 feet AGL
broken clouds at 11000 feet AGL
Weather: VCSH  (showers in vicinity)

METAR text: RJOT 241100Z 22004KT 9999 -RA FEW020 BKN120 BKN130 21/18 Q1012
Conditions at: RJOT (TAKAMATSU AIRPOR, JP) observed 1100 UTC 24 August 2019
Temperature: 21.0°C (70°F)
Dewpoint: 18.0°C (64°F) [RH = 83%]
Pressure (altimeter): 29.88 inches Hg (1012.0 mb)
Winds: from the SW (220 degrees) at 5 MPH (4 knots; 2.1 m/s)
Visibility: 6 or more miles (10+ km)
Ceiling: 12000 feet AGL
Clouds: few clouds at 2000 feet AGL
broken clouds at 12000 feet AGL
broken clouds at 13000 feet AGL
Weather: -RA  (light rain)

METAR text: RJOT 241000Z 18003KT 140V230 9999 FEW020 BKN120 BKN130 22/19 Q1011
Conditions at: RJOT (TAKAMATSU AIRPOR, JP) observed 1000 UTC 24 August 2019
Temperature: 22.0°C (72°F)
Dewpoint: 19.0°C (66°F) [RH = 83%]
Pressure (altimeter): 29.85 inches Hg (1011.0 mb)
Winds: from the S (180 degrees) at 3 MPH (3 knots; 1.5 m/s)
Visibility: 6 or more miles (10+ km)
Ceiling: 12000 feet AGL
Clouds: few clouds at 2000 feet AGL
broken clouds at 12000 feet AGL
broken clouds at 13000 feet AGL
Weather: no significant weather observed at this time

METAR text: RJOT 240900Z 14006KT 9999 FEW020 SCT110 BKN130 22/20 Q1011
Conditions at: RJOT (TAKAMATSU AIRPOR, JP) observed 0900 UTC 24 August 2019
Temperature: 22.0°C (72°F)
Dewpoint: 20.0°C (68°F) [RH = 88%]
Pressure (altimeter): 29.85 inches Hg (1011.0 mb)
Winds: from the SE (140 degrees) at 7 MPH (6 knots; 3.1 m/s)
Visibility: 6 or more miles (10+ km)
Ceiling: 13000 feet AGL
Clouds: few clouds at 2000 feet AGL
scattered clouds at 11000 feet AGL
broken clouds at 13000 feet AGL
Weather: no significant weather observed at this time

METAR text: RJOT 240800Z 21007KT 9999 -RA FEW020 SCT090 BKN110 22/18 Q1011
Conditions at: RJOT (TAKAMATSU AIRPOR, JP) observed 0800 UTC 24 August 2019
Temperature: 22.0°C (72°F)
Dewpoint: 18.0°C (64°F) [RH = 78%]
Pressure (altimeter): 29.85 inches Hg (1011.0 mb)
Winds: from the SSW (210 degrees) at 8 MPH (7 knots; 3.6 m/s)
Visibility: 6 or more miles (10+ km)
Ceiling: 11000 feet AGL
Clouds: few clouds at 2000 feet AGL
scattered clouds at 9000 feet AGL
broken clouds at 11000 feet AGL
Weather: -RA  (light rain)

METAR text: RJOT 240700Z 21004KT 140V260 9999 -RA FEW020 SCT050 BKN100 24/23 Q1011
Conditions at: RJOT (TAKAMATSU AIRPOR, JP) observed 0700 UTC 24 August 2019
Temperature: 24.0°C (75°F)
Dewpoint: 23.0°C (73°F) [RH = 94%]
Pressure (altimeter): 29.85 inches Hg (1011.0 mb)
Winds: from the SSW (210 degrees) at 5 MPH (4 knots; 2.1 m/s)
Visibility: 6 or more miles (10+ km)
Ceiling: 10000 feet AGL
Clouds: few clouds at 2000 feet AGL
scattered clouds at 5000 feet AGL
broken clouds at 10000 feet AGL
Weather: -RA  (light rain)

METAR text: RJOT 240600Z 25006KT 200V270 9999 -RA FEW015 SCT050 BKN100 26/22 Q1010
Conditions at: RJOT (TAKAMATSU AIRPOR, JP) observed 0600 UTC 24 August 2019
Temperature: 26.0°C (79°F)
Dewpoint: 22.0°C (72°F) [RH = 79%]
Pressure (altimeter): 29.82 inches Hg (1010.0 mb)
Winds: from the WSW (250 degrees) at 7 MPH (6 knots; 3.1 m/s)
Visibility: 6 or more miles (10+ km)
Ceiling: 10000 feet AGL
Clouds: few clouds at 1500 feet AGL
scattered clouds at 5000 feet AGL
broken clouds at 10000 feet AGL
Weather: -RA  (light rain)

METAR text: RJOT 240500Z 24006KT 210V270 9999 -RA FEW020 SCT090 BKN130 26/22 Q1011
Conditions at: RJOT (TAKAMATSU AIRPOR, JP) observed 0500 UTC 24 August 2019
Temperature: 26.0°C (79°F)
Dewpoint: 22.0°C (72°F) [RH = 79%]
Pressure (altimeter): 29.85 inches Hg (1011.0 mb)
Winds: from the WSW (240 degrees) at 7 MPH (6 knots; 3.1 m/s)
Visibility: 6 or more miles (10+ km)
Ceiling: 13000 feet AGL
Clouds: few clouds at 2000 feet AGL
scattered clouds at 9000 feet AGL
broken clouds at 13000 feet AGL
Weather: -RA  (light rain)

METAR text: RJOT 240400Z 24008KT 9999 FEW020 SCT100 BKN130 26/21 Q1011
Conditions at: RJOT (TAKAMATSU AIRPOR, JP) observed 0400 UTC 24 August 2019
Temperature: 26.0°C (79°F)
Dewpoint: 21.0°C (70°F) [RH = 74%]
Pressure (altimeter): 29.85 inches Hg (1011.0 mb)
Winds: from the WSW (240 degrees) at 9 MPH (8 knots; 4.1 m/s)
Visibility: 6 or more miles (10+ km)
Ceiling: 13000 feet AGL
Clouds: few clouds at 2000 feet AGL
scattered clouds at 10000 feet AGL
broken clouds at 13000 feet AGL
Weather: no significant weather observed at this time

METAR text: RJOT 240300Z 25009KT 9999 FEW020 SCT050 BKN130 27/21 Q1011
Conditions at: RJOT (TAKAMATSU AIRPOR, JP) observed 0300 UTC 24 August 2019
Temperature: 27.0°C (81°F)
Dewpoint: 21.0°C (70°F) [RH = 70%]
Pressure (altimeter): 29.85 inches Hg (1011.0 mb)
Winds: from the WSW (250 degrees) at 10 MPH (9 knots; 4.6 m/s)
Visibility: 6 or more miles (10+ km)
Ceiling: 13000 feet AGL
Clouds: few clouds at 2000 feet AGL
scattered clouds at 5000 feet AGL
broken clouds at 13000 feet AGL
Weather: no significant weather observed at this time

METAR text: RJOT 240200Z 24009KT 9999 FEW020 BKN140 27/22 Q1011
Conditions at: RJOT (TAKAMATSU AIRPOR, JP) observed 0200 UTC 24 August 2019
Temperature: 27.0°C (81°F)
Dewpoint: 22.0°C (72°F) [RH = 74%]
Pressure (altimeter): 29.85 inches Hg (1011.0 mb)
Winds: from the WSW (240 degrees) at 10 MPH (9 knots; 4.6 m/s)
Visibility: 6 or more miles (10+ km)
Ceiling: 14000 feet AGL
Clouds: few clouds at 2000 feet AGL
broken clouds at 14000 feet AGL
Weather: no significant weather observed at this time

METAR text: RJOT 240100Z 26007KT 230V290 9999 FEW020 SCT050 BKN180 26/22 Q1012
Conditions at: RJOT (TAKAMATSU AIRPOR, JP) observed 0100 UTC 24 August 2019
Temperature: 26.0°C (79°F)
Dewpoint: 22.0°C (72°F) [RH = 79%]
Pressure (altimeter): 29.88 inches Hg (1012.0 mb)
Winds: from the W (260 degrees) at 8 MPH (7 knots; 3.6 m/s)
Visibility: 6 or more miles (10+ km)
Ceiling: 18000 feet AGL
Clouds: few clouds at 2000 feet AGL
scattered clouds at 5000 feet AGL
broken clouds at 18000 feet AGL
Weather: no significant weather observed at this time

METAR text: RJOT 240000Z 24004KT 210V280 9999 FEW020 SCT140 BKN180 25/24 Q1011
Conditions at: RJOT (TAKAMATSU AIRPOR, JP) observed 0000 UTC 24 August 2019
Temperature: 25.0°C (77°F)
Dewpoint: 24.0°C (75°F) [RH = 94%]
Pressure (altimeter): 29.85 inches Hg (1011.0 mb)
Winds: from the WSW (240 degrees) at 5 MPH (4 knots; 2.1 m/s)
Visibility: 6 or more miles (10+ km)
Ceiling: 18000 feet AGL
Clouds: few clouds at 2000 feet AGL
scattered clouds at 14000 feet AGL
broken clouds at 18000 feet AGL
Weather: no significant weather observed at this time

METAR text: RJOT 232300Z 23003KT 180V270 9999 -SHRA FEW003 SCT035 BKN100 23/22 Q1011
Conditions at: RJOT (TAKAMATSU AIRPOR, JP) observed 2300 UTC 23 August 2019
Temperature: 23.0°C (73°F)
Dewpoint: 22.0°C (72°F) [RH = 94%]
Pressure (altimeter): 29.85 inches Hg (1011.0 mb)
Winds: from the SW (230 degrees) at 3 MPH (3 knots; 1.5 m/s)
Visibility: 6 or more miles (10+ km)
Ceiling: 10000 feet AGL
Clouds: few clouds at 300 feet AGL
scattered clouds at 3500 feet AGL
broken clouds at 10000 feet AGL
Weather: -SHRA  (light rain showers)

METAR text: RJOT 232200Z 16004KT 140V210 9999 VCSH FEW003 SCT020 BKN030 23/22 Q1011
Conditions at: RJOT (TAKAMATSU AIRPOR, JP) observed 2200 UTC 23 August 2019
Temperature: 23.0°C (73°F)
Dewpoint: 22.0°C (72°F) [RH = 94%]
Pressure (altimeter): 29.85 inches Hg (1011.0 mb)
Winds: from the SSE (160 degrees) at 5 MPH (4 knots; 2.1 m/s)
Visibility: 6 or more miles (10+ km)
Ceiling: 3000 feet AGL
Clouds: few clouds at 300 feet AGL
scattered clouds at 2000 feet AGL
broken clouds at 3000 feet AGL
Weather: VCSH  (showers in vicinity)

METAR text: RJOT 232120Z 15006KT 9999 FEW003 SCT030 BKN130 22/22 Q1011 RMK 1ST003 3CU030 5AC130 A2986
Conditions at: RJOT (TAKAMATSU AIRPOR, JP) observed 2120 UTC 23 August 2019
Temperature: 22.0°C (72°F)
Dewpoint: 22.0°C (72°F) [RH = 100%]
Pressure (altimeter): 29.85 inches Hg (1011.0 mb)
Winds: from the SSE (150 degrees) at 7 MPH (6 knots; 3.1 m/s)
Visibility: 6 or more miles (10+ km)
Ceiling: 13000 feet AGL
Clouds: few clouds at 300 feet AGL
scattered clouds at 3000 feet AGL
broken clouds at 13000 feet AGL
Weather: no significant weather observed at this time

METAR text: RJOT 231247Z 16003KT 5000 SHRA BR FEW010 SCT020 FEW025CB BKN030 24/24 Q1011 RMK 1ST010 3CU020 1CB025 6CU030 A2985 CB 15KM SW MOV E
Conditions at: RJOT (TAKAMATSU AIRPOR, JP) observed 1247 UTC 23 August 2019
Temperature: 24.0°C (75°F)
Dewpoint: 24.0°C (75°F) [RH = 100%]
Pressure (altimeter): 29.85 inches Hg (1011.0 mb)
Winds: from the SSE (160 degrees) at 3 MPH (3 knots; 1.5 m/s)
Visibility: 3 miles ( 5 km)
Ceiling: 3000 feet AGL
Clouds: few clouds at 1000 feet AGL
scattered clouds at 2000 feet AGL
few clouds at 2500 feet AGL
broken clouds at 3000 feet AGL
Weather: SHRA BR  (rain showers, mist)

METAR text: RJOT 231200Z 19003KT 150V240 9999 -SHRA FEW010 SCT020 BKN030 24/24 Q1011
Conditions at: RJOT (TAKAMATSU AIRPOR, JP) observed 1200 UTC 23 August 2019
Temperature: 24.0°C (75°F)
Dewpoint: 24.0°C (75°F) [RH = 100%]
Pressure (altimeter): 29.85 inches Hg (1011.0 mb)
Winds: from the S (190 degrees) at 3 MPH (3 knots; 1.5 m/s)
Visibility: 6 or more miles (10+ km)
Ceiling: 3000 feet AGL
Clouds: few clouds at 1000 feet AGL
scattered clouds at 2000 feet AGL
broken clouds at 3000 feet AGL
Weather: -SHRA  (light rain showers)

METAR text: RJOT 231100Z 23003KT 200V260 9999 VCSH FEW020 SCT035 BKN060 25/23 Q1010
Conditions at: RJOT (TAKAMATSU AIRPOR, JP) observed 1100 UTC 23 August 2019
Temperature: 25.0°C (77°F)
Dewpoint: 23.0°C (73°F) [RH = 89%]
Pressure (altimeter): 29.82 inches Hg (1010.0 mb)
Winds: from the SW (230 degrees) at 3 MPH (3 knots; 1.5 m/s)
Visibility: 6 or more miles (10+ km)
Ceiling: 6000 feet AGL
Clouds: few clouds at 2000 feet AGL
scattered clouds at 3500 feet AGL
broken clouds at 6000 feet AGL
Weather: VCSH  (showers in vicinity)

METAR text: RJOT 231000Z 03003KT 360V100 9999 VCSH FEW020 SCT035 BKN060 26/23 Q1010
Conditions at: RJOT (TAKAMATSU AIRPOR, JP) observed 1000 UTC 23 August 2019
Temperature: 26.0°C (79°F)
Dewpoint: 23.0°C (73°F) [RH = 84%]
Pressure (altimeter): 29.82 inches Hg (1010.0 mb)
Winds: from the NNE (30 degrees) at 3 MPH (3 knots; 1.5 m/s)
Visibility: 6 or more miles (10+ km)
Ceiling: 6000 feet AGL
Clouds: few clouds at 2000 feet AGL
scattered clouds at 3500 feet AGL
broken clouds at 6000 feet AGL
Weather: VCSH  (showers in vicinity)

METAR text: RJOT 230900Z 28005KT 250V320 9999 VCSH FEW020 SCT040 BKN070 27/23 Q1009
Conditions at: RJOT (TAKAMATSU AIRPOR, JP) observed 0900 UTC 23 August 2019
Temperature: 27.0°C (81°F)
Dewpoint: 23.0°C (73°F) [RH = 79%]
Pressure (altimeter): 29.79 inches Hg (1009.0 mb)
Winds: from the W (280 degrees) at 6 MPH (5 knots; 2.6 m/s)
Visibility: 6 or more miles (10+ km)
Ceiling: 7000 feet AGL
Clouds: few clouds at 2000 feet AGL
scattered clouds at 4000 feet AGL
broken clouds at 7000 feet AGL
Weather: VCSH  (showers in vicinity)

METAR text: RJOT 230800Z 28007KT 9999 FEW020 SCT130 BKN/// 28/24 Q1008
Conditions at: RJOT (TAKAMATSU AIRPOR, JP) observed 0800 UTC 23 August 2019
Temperature: 28.0°C (82°F)
Dewpoint: 24.0°C (75°F) [RH = 79%]
Pressure (altimeter): 29.76 inches Hg (1008.0 mb)
Winds: from the W (280 degrees) at 8 MPH (7 knots; 3.6 m/s)
Visibility: 6 or more miles (10+ km)
Ceiling: at least 12,000 feet AGL
Clouds: few clouds at 2000 feet AGL
scattered clouds at 13000 feet AGL
Weather: no significant weather observed at this time

METAR text: RJOT 230700Z 25012KT 9999 FEW020 SCT110 BKN130 28/23 Q1008
Conditions at: RJOT (TAKAMATSU AIRPOR, JP) observed 0700 UTC 23 August 2019
Temperature: 28.0°C (82°F)
Dewpoint: 23.0°C (73°F) [RH = 74%]
Pressure (altimeter): 29.76 inches Hg (1008.0 mb)
Winds: from the WSW (250 degrees) at 14 MPH (12 knots; 6.2 m/s)
Visibility: 6 or more miles (10+ km)
Ceiling: 13000 feet AGL
Clouds: few clouds at 2000 feet AGL
scattered clouds at 11000 feet AGL
broken clouds at 13000 feet AGL
Weather: no significant weather observed at this time

METAR text: RJOT 230600Z 26011KT 9999 FEW020 SCT100 BKN130 29/24 Q1008
Conditions at: RJOT (TAKAMATSU AIRPOR, JP) observed 0600 UTC 23 August 2019
Temperature: 29.0°C (84°F)
Dewpoint: 24.0°C (75°F) [RH = 74%]
Pressure (altimeter): 29.76 inches Hg (1008.0 mb)
Winds: from the W (260 degrees) at 13 MPH (11 knots; 5.7 m/s)
Visibility: 6 or more miles (10+ km)
Ceiling: 13000 feet AGL
Clouds: few clouds at 2000 feet AGL
scattered clouds at 10000 feet AGL
broken clouds at 13000 feet AGL
Weather: no significant weather observed at this time

METAR text: RJOT 230500Z 25011KT 9999 FEW020 SCT070 BKN130 29/24 Q1008
Conditions at: RJOT (TAKAMATSU AIRPOR, JP) observed 0500 UTC 23 August 2019
Temperature: 29.0°C (84°F)
Dewpoint: 24.0°C (75°F) [RH = 74%]
Pressure (altimeter): 29.76 inches Hg (1008.0 mb)
Winds: from the WSW (250 degrees) at 13 MPH (11 knots; 5.7 m/s)
Visibility: 6 or more miles (10+ km)
Ceiling: 13000 feet AGL
Clouds: few clouds at 2000 feet AGL
scattered clouds at 7000 feet AGL
broken clouds at 13000 feet AGL
Weather: no significant weather observed at this time

METAR text: RJOT 230400Z 25009KT 9999 FEW020 SCT070 BKN180 28/24 Q1009
Conditions at: RJOT (TAKAMATSU AIRPOR, JP) observed 0400 UTC 23 August 2019
Temperature: 28.0°C (82°F)
Dewpoint: 24.0°C (75°F) [RH = 79%]
Pressure (altimeter): 29.79 inches Hg (1009.0 mb)
Winds: from the WSW (250 degrees) at 10 MPH (9 knots; 4.6 m/s)
Visibility: 6 or more miles (10+ km)
Ceiling: 18000 feet AGL
Clouds: few clouds at 2000 feet AGL
scattered clouds at 7000 feet AGL
broken clouds at 18000 feet AGL
Weather: no significant weather observed at this time

Forecast for: RJOT (TAKAMATSU AIRPOR, JP)
Text: TAF RJOT 241105Z 2412/2518 20005KT 9999 -RA FEW020 BKN060
Forecast period: 1200 UTC 24 August 2019 to 1800 UTC 25 August 2019
Forecast type: FROM: standard forecast or significant change
Winds: from the SSW (200 degrees) at 6 MPH (5 knots; 2.6 m/s)
Visibility: 6 or more miles 10+ km)
Ceiling: 6000 feet AGL
Clouds: few clouds at 2000 feet AGL
broken clouds at 6000 feet AGL
Weather: -RA  (light rain)